createdAt,value
2019-02-06T00:03:40.556Z,10.93
2019-02-06T00:08:48.322Z,11.67
2019-02-06T00:13:54.768Z,9.30
2019-02-06T00:19:01.151Z,10.93
2019-02-06T00:24:07.503Z,10.43
2019-02-06T00:29:14.144Z,10.98
2019-02-06T00:34:20.514Z,10.88
2019-02-06T00:39:26.819Z,13.83
2019-02-06T00:44:33.191Z,12.20
2019-02-06T00:49:39.462Z,14.40
2019-02-06T00:54:46.165Z,12.40
2019-02-06T00:59:52.962Z,13.43
2019-02-06T01:04:59.265Z,14.17
2019-02-06T01:10:06.858Z,14.83
2019-02-06T01:15:13.589Z,12.67
2019-02-06T01:20:20.001Z,16.03
2019-02-06T01:25:27.392Z,14.80
2019-02-06T01:30:44.575Z,17.23
2019-02-06T01:35:50.862Z,16.80
2019-02-06T01:40:58.724Z,14.53
2019-02-06T01:46:05.593Z,14.57
2019-02-06T01:51:11.983Z,15.00
2019-02-06T01:56:20.694Z,14.67
2019-02-06T02:01:27.015Z,14.17
2019-02-06T02:06:33.312Z,14.68
2019-02-06T02:11:39.776Z,14.33
2019-02-06T02:16:46.184Z,15.27
2019-02-06T02:21:52.727Z,14.90
2019-02-06T02:27:00.650Z,15.80
2019-02-06T02:32:06.915Z,14.63
2019-02-06T02:37:14.528Z,13.40
2019-02-06T02:42:21.237Z,14.30
2019-02-06T02:47:27.636Z,17.40
2019-02-06T02:52:34.267Z,13.57
2019-02-06T02:57:40.929Z,16.03
2019-02-06T03:02:59.984Z,15.10
2019-02-06T03:08:06.296Z,13.97
2019-02-06T03:13:12.556Z,16.40
2019-02-06T03:18:18.872Z,17.48
2019-02-06T03:23:25.690Z,12.07
2019-02-06T03:28:31.971Z,13.50
2019-02-06T03:33:38.555Z,14.78
2019-02-06T03:38:45.110Z,14.20
2019-02-06T03:43:51.474Z,16.37
2019-02-06T03:48:57.768Z,13.77
2019-02-06T03:54:04.780Z,14.70
2019-02-06T03:59:11.104Z,14.40
2019-02-06T04:04:17.361Z,12.37
2019-02-06T04:09:23.788Z,11.78
2019-02-06T04:14:30.114Z,13.23
2019-02-06T04:19:36.474Z,14.23
2019-02-06T04:24:45.116Z,13.83
2019-02-06T04:29:51.513Z,13.30
2019-02-06T04:34:57.925Z,12.23
2019-02-06T04:40:05.083Z,12.53
2019-02-06T04:45:12.118Z,12.90
2019-02-06T04:50:18.733Z,15.53
2019-02-06T04:55:25.050Z,14.43
2019-02-06T05:00:31.342Z,13.43
2019-02-06T05:05:37.594Z,14.60
2019-02-06T05:10:45.532Z,15.00
2019-02-06T05:15:51.822Z,13.20
2019-02-06T05:20:58.289Z,13.97
2019-02-06T05:26:05.537Z,12.10
2019-02-06T05:31:12.263Z,12.07
2019-02-06T05:36:18.644Z,10.60
2019-02-06T05:41:24.973Z,12.93
2019-02-06T05:46:31.952Z,13.17
2019-02-06T05:51:38.264Z,14.40
2019-02-06T05:56:44.653Z,12.55
2019-02-06T06:01:51.257Z,13.40
2019-02-06T06:06:59.387Z,12.47
2019-02-06T06:12:05.717Z,13.05
2019-02-06T06:17:12.233Z,13.13
2019-02-06T06:22:18.926Z,13.38
2019-02-06T06:27:25.289Z,11.95
2019-02-06T06:32:32.098Z,12.40
2019-02-06T06:37:41.374Z,11.07
2019-02-06T06:42:46.718Z,13.68
2019-02-06T06:47:53.469Z,12.23
2019-02-06T06:52:59.806Z,13.83
2019-02-06T06:58:06.345Z,13.20
2019-02-06T07:03:12.705Z,13.93
2019-02-06T07:08:19.065Z,13.47
2019-02-06T07:13:25.361Z,13.18
2019-02-06T07:18:31.662Z,15.80
2019-02-06T07:23:37.969Z,17.50
2019-02-06T07:28:45.479Z,14.18
2019-02-06T07:33:51.935Z,13.13
2019-02-06T07:38:58.240Z,12.87
2019-02-06T07:44:05.703Z,13.00
2019-02-06T07:49:12.063Z,14.98
2019-02-06T07:54:18.277Z,12.43
2019-02-06T07:59:24.574Z,12.47
2019-02-06T08:04:30.876Z,14.17
2019-02-06T08:09:37.207Z,13.77
2019-02-06T08:14:43.579Z,14.80
2019-02-06T08:19:49.917Z,13.33
2019-02-06T08:24:56.327Z,14.10
2019-02-06T08:30:02.717Z,11.67
2019-02-06T08:35:09.809Z,13.00
2019-02-06T08:40:17.057Z,12.80
2019-02-06T08:45:23.829Z,15.45
2019-02-06T08:50:30.368Z,13.83
2019-02-06T08:55:36.663Z,13.80
2019-02-06T09:00:42.935Z,12.93
2019-02-06T09:05:49.509Z,10.85
2019-02-06T09:10:55.888Z,15.63
2019-02-06T09:16:02.155Z,13.23
2019-02-06T09:21:08.467Z,11.83
2019-02-06T09:26:14.795Z,13.07
2019-02-06T09:31:21.395Z,12.43
2019-02-06T09:36:27.739Z,11.37
2019-02-06T09:41:35.852Z,11.53
2019-02-06T09:46:42.177Z,11.57
2019-02-06T09:51:48.936Z,12.05
2019-02-06T09:56:55.767Z,14.50
2019-02-06T10:02:02.188Z,14.10
2019-02-06T10:07:08.579Z,12.15
2019-02-06T10:12:14.934Z,12.07
2019-02-06T10:17:22.274Z,13.10
2019-02-06T10:22:28.829Z,12.67
2019-02-06T10:27:35.679Z,13.87
2019-02-06T10:32:42.285Z,12.57
2019-02-06T10:37:49.619Z,17.87
2019-02-06T10:42:56.080Z,13.43
2019-02-06T10:48:02.352Z,12.80
2019-02-06T10:53:09.089Z,14.77
2019-02-06T10:58:15.479Z,11.83
2019-02-06T11:03:21.744Z,12.30
2019-02-06T11:08:28.076Z,12.17
2019-02-06T11:13:34.678Z,10.85
2019-02-06T11:18:40.963Z,11.00
2019-02-06T11:23:47.321Z,14.17
2019-02-06T11:28:53.886Z,11.22
2019-02-06T11:34:00.138Z,12.00
2019-02-06T11:39:15.965Z,12.85
2019-02-06T11:44:24.495Z,13.40
2019-02-06T11:49:37.357Z,13.67
2019-02-06T11:54:43.668Z,14.20
2019-02-06T11:59:52.947Z,19.17
2019-02-06T12:04:58.031Z,16.17
2019-02-06T12:10:10.060Z,19.20
2019-02-06T12:15:16.737Z,15.13
2019-02-06T12:20:23.293Z,14.60
2019-02-06T12:25:29.854Z,12.77
2019-02-06T12:30:36.805Z,13.93
2019-02-06T12:35:43.331Z,16.63
2019-02-06T12:40:49.903Z,16.43
2019-02-06T12:45:56.246Z,16.83
2019-02-06T12:51:02.590Z,16.27
2019-02-06T12:56:08.901Z,13.03
2019-02-06T13:01:15.224Z,13.72
2019-02-06T13:06:22.011Z,15.10
2019-02-06T13:11:28.400Z,14.07
2019-02-06T13:16:34.739Z,14.57
2019-02-06T13:21:42.572Z,14.90
2019-02-06T13:26:50.514Z,13.83
2019-02-06T13:31:57.256Z,13.13
2019-02-06T13:37:03.559Z,14.00
2019-02-06T13:42:09.867Z,10.93
2019-02-06T13:47:16.504Z,10.63
2019-02-06T13:52:22.815Z,12.93
2019-02-06T13:57:33.858Z,11.57
2019-02-06T14:02:38.499Z,12.23
2019-02-06T14:07:45.096Z,11.93
2019-02-06T14:12:53.224Z,11.45
2019-02-06T14:18:00.043Z,12.20
2019-02-06T14:23:12.203Z,8.93
2019-02-06T14:28:58.520Z,8.53
2019-02-06T14:34:42.411Z,8.97
2019-02-06T14:40:13.721Z,9.50
2019-02-06T14:45:52.712Z,10.33
2019-02-06T14:51:31.140Z,8.60
2019-02-06T14:57:03.899Z,8.08
2019-02-06T15:02:47.783Z,8.27
2019-02-06T15:08:10.557Z,10.60
2019-02-06T15:13:41.300Z,6.80
2019-02-06T15:19:24.427Z,7.73
2019-02-06T15:25:09.486Z,9.77
2019-02-06T15:30:58.877Z,8.67
2019-02-06T15:36:24.808Z,6.10
2019-02-06T15:41:53.478Z,9.07
2019-02-06T15:47:37.865Z,6.22
2019-02-06T15:53:27.811Z,8.33
2019-02-06T15:59:12.407Z,6.03
2019-02-06T16:05:17.902Z,7.70
2019-02-06T16:10:50.255Z,6.80
2019-02-06T16:16:16.127Z,9.90
2019-02-06T16:21:53.157Z,10.63
2019-02-06T16:27:33.175Z,9.60
2019-02-06T16:33:25.143Z,12.20
2019-02-06T16:38:47.565Z,8.57
2019-02-06T16:44:30.932Z,9.87
2019-02-06T16:50:24.260Z,8.23
2019-02-06T16:56:08.000Z,8.27
2019-02-06T17:01:38.420Z,8.60
2019-02-06T17:07:19.185Z,7.33
2019-02-06T17:13:02.507Z,6.40
2019-02-06T17:18:56.150Z,9.48
2019-02-06T17:24:55.482Z,7.37
2019-02-06T17:30:55.431Z,5.60
2019-02-06T17:36:31.373Z,4.93
2019-02-06T17:42:20.832Z,4.47
2019-02-06T17:48:17.334Z,3.20
2019-02-06T17:54:10.826Z,3.05
2019-02-06T17:59:17.236Z,5.27
2019-02-06T18:04:26.827Z,5.75
2019-02-06T18:09:33.528Z,3.60
2019-02-06T18:14:39.846Z,5.03
2019-02-06T18:19:47.322Z,4.03
2019-02-06T18:24:53.778Z,3.25
2019-02-06T18:30:00.238Z,3.87
2019-02-06T18:35:07.255Z,3.80
2019-02-06T18:40:13.950Z,3.87
2019-02-06T18:45:20.905Z,6.67
2019-02-06T18:50:28.079Z,6.57
2019-02-06T18:55:34.443Z,5.42
2019-02-06T19:00:41.052Z,6.10
2019-02-06T19:05:47.585Z,4.67
2019-02-06T19:10:53.895Z,6.20
2019-02-06T19:16:00.326Z,3.90
2019-02-06T19:21:07.047Z,6.65
2019-02-06T19:26:13.791Z,5.40
2019-02-06T19:31:20.148Z,6.20
2019-02-06T19:36:26.476Z,6.87
2019-02-06T19:41:32.847Z,5.60
2019-02-06T19:46:39.205Z,6.27
2019-02-06T19:51:45.863Z,5.20
2019-02-06T19:56:52.282Z,6.80
2019-02-06T20:01:58.673Z,7.22
2019-02-06T20:07:05.924Z,6.15
2019-02-06T20:12:12.214Z,7.03
2019-02-06T20:17:19.051Z,7.23
2019-02-06T20:22:25.410Z,6.70
2019-02-06T20:27:31.842Z,11.10
2019-02-06T20:32:38.229Z,7.90
2019-02-06T20:37:44.948Z,7.70
2019-02-06T20:42:51.616Z,9.40
2019-02-06T20:47:58.853Z,9.77
2019-02-06T20:53:06.451Z,8.97
2019-02-06T20:58:12.767Z,7.70
2019-02-06T21:03:19.106Z,8.33
2019-02-06T21:08:25.537Z,7.77
2019-02-06T21:13:33.699Z,8.10
2019-02-06T21:18:39.825Z,8.63
2019-02-06T21:23:46.245Z,9.77
2019-02-06T21:28:52.593Z,9.87
2019-02-06T21:33:58.896Z,13.57
2019-02-06T21:39:09.330Z,13.00
2019-02-06T21:44:15.895Z,13.03
2019-02-06T21:49:22.229Z,14.60
2019-02-06T21:54:28.548Z,12.53
2019-02-06T21:59:35.952Z,15.53
2019-02-06T22:04:42.818Z,13.20
2019-02-06T22:09:49.185Z,11.97
2019-02-06T22:14:55.705Z,18.48
2019-02-06T22:20:01.996Z,15.90
2019-02-06T22:25:08.562Z,20.63
2019-02-06T22:30:17.599Z,17.63
2019-02-06T22:35:24.297Z,16.93
2019-02-06T22:40:30.617Z,17.30
2019-02-06T22:45:38.010Z,19.07
2019-02-06T22:50:44.325Z,18.23
2019-02-06T22:55:50.649Z,18.93
2019-02-06T23:01:17.836Z,15.87
2019-02-06T23:06:24.197Z,17.90
2019-02-06T23:11:30.562Z,16.67
2019-02-06T23:16:36.875Z,17.53
2019-02-06T23:21:44.584Z,19.20
2019-02-06T23:26:51.115Z,17.90
2019-02-06T23:31:57.800Z,21.30
2019-02-06T23:37:04.307Z,21.63
2019-02-06T23:42:10.609Z,20.07
2019-02-06T23:47:16.991Z,21.43
2019-02-06T23:52:23.284Z,21.80
2019-02-06T23:57:29.814Z,21.07
